This is the latest recevied weather packets stored in our database for station/object CW79215. If no packets are shown the sender has not sent any weather packets the latest 10 day(s).
| Time | Temp. | Humidity | Pressure | Rain* | Wind** | Luminosity | Snow |
|---|---|---|---|---|---|---|---|
| 1788135630 | 65° F | 84% | 769.9 mmHg | - | - | - | - |
| 1788134730 | 64° F | 87% | 769.9 mmHg | - | - | - | - |
| 1788133829 | 64° F | 86% | 770.1 mmHg | - | - | - | - |
| 1788132929 | 64° F | 86% | 770 mmHg | - | - | - | - |
| 1788132029 | 63° F | 87% | 769.6 mmHg | - | - | - | - |
| 1788131129 | 63° F | 84% | 769.4 mmHg | - | - | - | - |
| 1788130229 | 63° F | 83% | 770 mmHg | - | - | - | - |
| 1788129329 | 65° F | 69% | 769 mmHg | - | - | - | - |
| 1788128428 | 64° F | 69% | 768.5 mmHg | - | - | - | - |
| 1788127528 | 64° F | 69% | 768.4 mmHg | - | - | - | - |
| 1788126628 | 64° F | 68% | 768.5 mmHg | - | - | - | - |
| 1788125728 | 63° F | 70% | 768.6 mmHg | - | - | - | - |
| 1788124828 | 64° F | 69% | 768.6 mmHg | - | - | - | - |
| 1788123928 | 64° F | 68% | 768.7 mmHg | - | - | - | - |
| 1788123028 | 65° F | 68% | 768.7 mmHg | - | - | - | - |
| 1788122130 | 65° F | 66% | 768.7 mmHg | - | - | - | - |
| 1788121230 | 66° F | 65% | 768.8 mmHg | - | - | - | - |
| 1788120330 | 66° F | 65% | 768.7 mmHg | - | - | - | - |
| 1788119430 | 67° F | 61% | 768.8 mmHg | - | - | - | - |
| 1788118530 | 68° F | 61% | 768.7 mmHg | - | - | - | - |
| 1788117630 | 69° F | 57% | 768.7 mmHg | - | - | - | - |
| 1788116729 | 69° F | 58% | 768.7 mmHg | - | - | - | - |
| 1788115829 | 69° F | 56% | 768.7 mmHg | - | - | - | - |
| 1788114929 | 70° F | 55% | 768.6 mmHg | - | - | - | - |
| 1788114029 | 71° F | 53% | 768.6 mmHg | - | - | - | - |
* Rain since midnight (hover to see other rain measurements)
** Current wind speed in m/s (hover to see current wind gust speed)